Flight Track Log - Related Links

Times and Time Zones

All times are in EDT time to prevent confusion due to time zone crossing. See the EGF3650 flight status page for this flight to view local times or setup timezone preferences in your user account.

Time Position Orientation Groundspeed Altitude Reporting Facility
EDT Latitude Longitude Course Direction KTS MPH feet Rate Location/Type
Wed 01:17:20 AM 33.9217 -118.4664 90° East 195 224 2,300  Level Los Angeles Center
Wed 01:18:21 AM 33.8744 -118.5242 225° Southwest 251 289 4,500 2,164 Climbing Los Angeles Center
Wed 01:19:00 AM 33.6723 -118.4502 101° East  Level FlightAware Approximate
Wed 01:19:22 AM 33.8075 -118.5308 185° South 277 319 6,700  Level Los Angeles Center
Wed 01:20:00 AM 33.6334 -118.2954 90° East  Level FlightAware Approximate
Wed 01:20:23 AM 33.7092 -118.5169 173° South 300 345 9,900  Level Los Angeles Center
Wed 01:21:00 AM 33.6333 -118.1308 90° East  Level FlightAware Approximate
Wed 01:21:24 AM 33.6678 -118.4272 119° Southeast 322 371 11,300  Level Los Angeles Center
Wed 01:22:00 AM 33.6334 -117.9662 90° East  Level FlightAware Approximate
Wed 01:22:25 AM 33.6431 -118.3178 105° East 346 398 12,700  Level Los Angeles Center
Wed 01:23:26 AM 33.6308 -118.1961 97° East 370 426 13,900 1,328 Climbing Los Angeles Center
Wed 01:24:27 AM 33.6147 -118.0628 98° East 402 463 15,400 1,623 Climbing Los Angeles Center
Wed 01:25:28 AM 33.5989 -117.9261 98° East 415 478 17,200 1,574 Climbing Los Angeles Center
Wed 01:26:29 AM 33.5825 -117.7869 98° East 422 486 18,600 1,426 Climbing Los Angeles Center
Wed 01:27:30 AM 33.5628 -117.6164 98° East 431 496 20,100 1,230 Climbing Los Angeles Center
Wed 01:28:31 AM 33.5450 -117.4689 98° East 447 514 21,100 984 Climbing Los Angeles Center
Wed 01:29:32 AM 33.5267 -117.3172 98° East 460 529 22,100 984 Climbing Los Angeles Center
Wed 01:30:33 AM 33.5075 -117.1619 98° East 472 543 23,100 885 Climbing Los Angeles Center
Wed 01:31:34 AM 33.4894 -117.0217 99° East 478 550 23,900 893 Climbing Los Angeles Center
Wed 01:32:34 AM 33.4700 -116.8608 98° East 486 559 24,900 893 Climbing Los Angeles Center
Wed 01:33:35 AM 33.4497 -116.7014 99° East 484 557 25,700 738 Climbing Los Angeles Center
Wed 01:34:36 AM 33.4250 -116.5028 98° East 497 572 26,400 885 Climbing Los Angeles Center
Wed 01:35:37 AM 33.4031 -116.3369 99° East 501 577 27,500 1,180 Climbing Los Angeles Center
Wed 01:36:38 AM 33.3814 -116.1700 99° East 503 579 28,800 1,230 Climbing Los Angeles Center
Wed 01:37:39 AM 33.3617 -116.0100 98° East 483 556 30,000 1,082 Climbing Los Angeles Center
Wed 01:38:40 AM 33.3425 -115.8503 98° East 483 556 31,000 984 Climbing Los Angeles Center
Wed 01:39:41 AM 33.3239 -115.6914 98° East 482 555 32,000 992 Climbing Los Angeles Center
Wed 01:40:41 AM 33.3039 -115.5342 99° East 479 551 33,000 1,041 Climbing Los Angeles Center
Wed 01:41:42 AM 33.2853 -115.3778 98° East 475 547 34,100 1,033 Climbing Los Angeles Center
Wed 01:42:43 AM 33.2661 -115.2211 98° East 477 549 35,100 934 Climbing Los Angeles Center
Wed 01:43:44 AM 33.2464 -115.0661 99° East 472 543 36,000 689 Climbing Los Angeles Center
Wed 01:44:45 AM 33.2275 -114.9111 98° East 475 547 36,500 492 Climbing Los Angeles Center
Wed 01:45:46 AM 33.2067 -114.7536 99° East 479 551 37,000 263 Climbing Los Angeles Center
Wed 01:46:39 AM 33.1917 -114.6111 97° East 485 558 37,000  Level Albuquerque Center
Wed 01:47:39 AM 33.1706 -114.4447 99° East 500 575 37,000  Level Albuquerque Center
Wed 01:48:40 AM 33.1478 -114.2761 99° East 511 588 37,000  Level Albuquerque Center
Wed 01:49:40 AM 33.1247 -114.1072 99° East 515 593 37,000  Level Albuquerque Center
Wed 01:50:41 AM 33.1022 -113.9403 99° East 512 589 37,000  Level Albuquerque Center
Wed 01:51:41 AM 33.0797 -113.7731 99° East 510 587 37,000  Level Albuquerque Center
Wed 01:52:42 AM 33.0561 -113.6075 100° East 508 585 37,000  Level Albuquerque Center
Wed 01:53:42 AM 33.0325 -113.4436 100° East 504 580 37,000  Level Albuquerque Center
Wed 01:54:43 AM 33.0100 -113.2783 99° East 503 579 37,000 -50 Level Albuquerque Center
Wed 01:55:43 AM 32.9867 -113.1100 99° East 508 585 36,900  Descending Albuquerque Center
Wed 01:56:44 AM 32.9625 -112.9431 100° East 511 588 37,000 50 Climbing Albuquerque Center
Wed 01:57:44 AM 32.9381 -112.7767 100° East 508 585 37,000  Level Albuquerque Center
Wed 01:58:45 AM 32.9150 -112.6114 99° East 506 582 37,000  Level Albuquerque Center
Wed 01:59:45 AM 32.8897 -112.4472 100° East 503 579 37,000  Level Albuquerque Center
Wed 02:00:46 AM 32.8661 -112.2825 100° East 503 579 37,000  Level Albuquerque Center
Wed 02:01:46 AM 32.8386 -112.0989 100° East 502 578 37,000  Level Albuquerque Center
Wed 02:02:47 AM 32.8142 -111.9378 100° East 501 577 37,000  Level Albuquerque Center
Wed 02:04:00 AM 32.7835 -111.7507 101° East  Level FlightAware Approximate
Wed 02:04:48 AM 32.7639 -111.6111 101° East 503 579 37,000  Level Albuquerque Center
Wed 02:05:48 AM 32.7400 -111.4497 100° East 501 577 37,000  Level Albuquerque Center
Wed 02:06:49 AM 32.7139 -111.2869 101° East 504 580 37,000  Level Albuquerque Center
Wed 02:07:49 AM 32.6875 -111.1247 101° East 504 580 37,000  Level Albuquerque Center
Wed 02:08:50 AM 32.6617 -110.9614 101° East 505 581 37,000  Level Albuquerque Center
Wed 02:09:50 AM 32.6356 -110.7972 101° East 507 583 37,000  Level Albuquerque Center
Wed 02:10:51 AM 32.6083 -110.6317 101° East 511 588 37,000  Level Albuquerque Center
Wed 02:11:51 AM 32.5817 -110.4675 101° East 511 588 37,000  Level Albuquerque Center
Wed 02:12:52 AM 32.5544 -110.3039 101° East 508 585 37,000  Level Albuquerque Center
Wed 02:13:52 AM 32.5267 -110.1425 101° East 507 583 37,000  Level Albuquerque Center
Wed 02:14:53 AM 32.5003 -109.9806 101° East 507 583 37,000  Level Albuquerque Center
Wed 02:15:53 AM 32.4664 -109.7858 102° East 508 585 37,000  Level Albuquerque Center
Wed 02:16:54 AM 32.4375 -109.6217 102° East 514 592 37,000  Level Albuquerque Center
Wed 02:17:54 AM 32.4075 -109.4567 102° East 518 596 37,000  Level Albuquerque Center
Wed 02:18:54 AM 32.3811 -109.2942 101° East 514 592 37,000  Level Albuquerque Center
Wed 02:19:55 AM 32.3517 -109.1306 102° East 516 594 37,000  Level Albuquerque Center
Wed 02:20:55 AM 32.3219 -108.9658 102° East 519 597 37,000  Level Albuquerque Center
Wed 02:21:56 AM 32.2936 -108.8000 101° East 522 601 37,000  Level Albuquerque Center
Wed 02:22:56 AM 32.2633 -108.6367 102° East 519 597 37,000  Level Albuquerque Center
Wed 02:23:57 AM 32.2347 -108.4719 102° East 519 597 37,000  Level Albuquerque Center
Wed 02:24:57 AM 32.1986 -108.2822 103° East 518 596 37,000  Level Albuquerque Center
Wed 02:25:57 AM 32.1694 -108.1181 102° East 516 594 37,000  Level Albuquerque Center
Wed 02:26:58 AM 32.1394 -107.9550 102° East 513 590 37,000  Level Albuquerque Center
Wed 02:27:58 AM 32.1094 -107.7911 102° East 514 592 37,000  Level Albuquerque Center
Wed 02:28:59 AM 32.0783 -107.6278 103° East 516 594 37,000  Level Albuquerque Center
Wed 02:29:59 AM 32.0481 -107.4625 102° East 519 597 37,000  Level Albuquerque Center
Wed 02:31:00 AM 32.0161 -107.2978 103° East 521 600 37,000  Level Albuquerque Center
Wed 02:32:00 AM 31.9928 -107.1311 99° East 522 601 37,000  Level Albuquerque Center
Wed 02:33:00 AM 31.9717 -106.9628 98° East 525 604 37,000  Level Albuquerque Center
Wed 02:34:01 AM 31.9503 -106.7953 99° East 523 602 37,000  Level Albuquerque Center
Wed 02:35:01 AM 31.9292 -106.6278 98° East 521 600 37,000  Level Albuquerque Center
Wed 02:36:02 AM 31.9025 -106.4369 99° East 522 601 37,000  Level Albuquerque Center
Wed 02:37:02 AM 31.8825 -106.2631 98° East 531 611 37,000 -50 Level Albuquerque Center
Wed 02:38:03 AM 31.8597 -106.0936 99° East 529 609 36,900  Descending Albuquerque Center
Wed 02:39:03 AM 31.8369 -105.9250 99° East 524 603 37,000 50 Climbing Albuquerque Center
Wed 02:40:03 AM 31.8153 -105.7556 99° East 524 603 37,000  Level Albuquerque Center
Wed 02:41:04 AM 31.7919 -105.5853 99° East 526 605 37,000 -50 Level Albuquerque Center
Wed 02:42:04 AM 31.7689 -105.4117 99° East 534 615 36,900  Descending Albuquerque Center
Wed 02:43:05 AM 31.7447 -105.2381 99° East 537 618 37,000 50 Climbing Albuquerque Center
Wed 02:44:05 AM 31.7208 -105.0619 99° East 541 623 37,000 -50 Level Albuquerque Center
Wed 02:45:05 AM 31.6978 -104.8839 99° East 545 627 36,900 -50 Descending Albuquerque Center
Wed 02:46:06 AM 31.6731 -104.7131 100° East 541 623 36,900 50 Level Albuquerque Center
Wed 02:47:06 AM 31.6497 -104.5469 99° East 531 611 37,000 50 Climbing Albuquerque Center
Wed 02:48:07 AM 31.6264 -104.3806 99° East 523 602 37,000  Level Albuquerque Center
Wed 02:49:07 AM 31.6019 -104.2094 99° East 524 603 37,000  Level Albuquerque Center
Wed 02:50:07 AM 31.5769 -104.0344 99° East 533 613 37,000  Level Albuquerque Center
Wed 02:51:08 AM 31.5519 -103.8606 100° East 538 619 37,000  Level Albuquerque Center
Wed 02:52:08 AM 31.5264 -103.6917 100° East 536 617 37,000  Level Albuquerque Center
Wed 02:53:09 AM 31.5008 -103.5242 100° East 528 608 37,000 -50 Level Albuquerque Center
Wed 02:54:09 AM 31.4739 -103.3561 101° East 525 604 36,900  Descending Albuquerque Center
Wed 02:55:10 AM 31.4486 -103.1878 100° East 526 605 37,000 50 Climbing Albuquerque Center
Wed 02:56:10 AM 31.4217 -103.0189 101° East 528 608 37,000  Level Albuquerque Center
Wed 02:57:10 AM 31.3956 -102.8519 100° East 523 602 37,000  Level Albuquerque Center
Wed 02:58:11 AM 31.3686 -102.6853 101° East 523 602 37,000  Level Albuquerque Center
Wed 02:59:11 AM 31.3394 -102.5011 100° East 530 610 37,000  Level Albuquerque Center
Wed 03:00:12 AM 31.3125 -102.3336 101° East 530 610 37,000  Level Albuquerque Center
Wed 03:01:12 AM 31.2875 -102.1772 101° East 524 603 37,000  Level Albuquerque Center
Wed 03:02:13 AM 31.2586 -102.0017 101° East 522 601 37,000  Level Albuquerque Center
Wed 03:03:13 AM 31.2317 -101.8308 100° East 525 604 37,000  Level Albuquerque Center
Wed 03:04:13 AM 31.2025 -101.6631 101° East 526 605 37,000  Level Albuquerque Center
Wed 03:05:24 AM 31.1692 -101.4608 101° East 530 610 37,000  Level Houston Center
Wed 03:06:24 AM 31.1397 -101.2894 101° East 533 613 37,000  Level Houston Center
Wed 03:07:24 AM 31.1103 -101.1122 101° East 546 628 37,000  Level Houston Center
Wed 03:08:24 AM 31.0808 -100.9328 101° East 559 643 37,000  Level Houston Center
Wed 03:09:24 AM 31.0494 -100.7539 102° East 562 647 37,000  Level Houston Center
Wed 03:10:24 AM 31.0181 -100.5725 101° East 569 655 37,000  Level Houston Center
Wed 03:11:25 AM 30.9850 -100.3931 102° East 565 650 37,000  Level Houston Center
Wed 03:12:25 AM 30.9539 -100.2108 101° East 568 654 37,000 -50 Level Houston Center
Wed 03:13:25 AM 30.9211 -100.0286 102° East 569 655 36,900 -50 Descending Houston Center
Wed 03:14:25 AM 30.8892 -99.8494 102° East 565 650 36,900 50 Level Houston Center
Wed 03:15:25 AM 30.8583 -99.6728 101° East 557 641 37,000 50 Climbing Houston Center
Wed 03:16:25 AM 30.8261 -99.4981 102° East 551 634 37,000  Level Houston Center
Wed 03:17:25 AM 30.7928 -99.3225 102° East 553 636 37,000  Level Houston Center
Wed 03:18:26 AM 30.7597 -99.1486 102° East 551 634 37,000  Level Houston Center
Wed 03:19:26 AM 30.7258 -98.9722 103° East 551 634 37,000  Level Houston Center
Wed 03:20:26 AM 30.6928 -98.7961 102° East 554 638 37,000  Level Houston Center
Wed 03:21:26 AM 30.6647 -98.6497 103° East 555 639 37,000  Level Houston Center
Wed 03:22:26 AM 30.6311 -98.4739 102° East 555 639 37,000  Level Houston Center
Wed 03:23:26 AM 30.5969 -98.2986 103° East 554 638 37,000  Level Houston Center
Wed 03:24:26 AM 30.5622 -98.1222 103° East 557 641 37,000  Level Houston Center
Wed 03:25:27 AM 30.5269 -97.9464 103° East 558 642 37,000  Level Houston Center
Wed 03:26:27 AM 30.4925 -97.7686 103° East 561 646 37,000  Level Houston Center
Wed 03:27:27 AM 30.4567 -97.5914 103° East 562 647 37,000  Level Houston Center
Wed 03:28:27 AM 30.4206 -97.4131 103° East 567 652 37,000  Level Houston Center
Wed 03:29:27 AM 30.3842 -97.2364 103° East 564 649 37,000 -248 Level Houston Center
Wed 03:30:28 AM 30.3494 -97.0572 103° East 567 652 36,500 -1,636 Descending Houston Center
Wed 03:31:28 AM 30.3131 -96.8842 104° East 556 640 33,700 -3,250 Descending Houston Center
Wed 03:32:28 AM 30.2797 -96.7250 104° East 509 586 30,000 -3,908 Descending Houston Center
Wed 03:33:17 AM 30.2500 -96.5872 104° East 477 549 26,600 -3,949 Descending Houston Center
Wed 03:33:47 AM 30.2358 -96.5164 103° East 473 544 24,800 -3,296 Descending Houston Center
Wed 03:34:28 AM 30.2178 -96.4272 103° East 472 543 22,700 -3,639 Descending Houston Center
Wed 03:34:48 AM 30.2044 -96.3653 104° East 465 535 21,100 -3,700 Descending Houston Center
Wed 03:35:28 AM 30.1883 -96.2864 103° East 452 520 19,000 -3,800 Descending Houston Center
Wed 03:35:48 AM 30.1739 -96.2261 105° East 437 503 17,300 -3,639 Descending Houston Center
Wed 03:36:29 AM 30.1594 -96.1525 103° East 432 497 15,300 -3,386 Descending Houston Center
Wed 03:37:29 AM 30.1389 -96.0242 100° East 396 456 11,600 -2,850 Descending Houston Center
Wed 03:38:29 AM 30.1264 -95.9142 97° East 349 402 9,600 -1,760 Descending Houston Center
Wed 03:38:44 AM 30.1217 -95.8869 101° East 278 320 9,400 -1,000 Descending Houston Center
Wed 03:39:29 AM 30.1169 -95.8325 96° East 264 304 8,600 -1,475 Descending Houston Center
Wed 03:39:45 AM 30.1125 -95.8083 102° East 234 269 7,900 -2,100 Descending Houston Center
Wed 03:40:29 AM 30.1028 -95.7614 103° East 232 267 6,500 -1,900 Descending Houston Center
Wed 03:40:45 AM 30.0944 -95.7453 121° Southeast 201 231 6,000 -1,082 Descending Houston Center
Wed 03:41:30 AM 30.0817 -95.7053 110° East 196 226 5,400 -885 Descending Houston Center
Wed 03:41:46 AM 30.0700 -95.6828 121° Southeast 203 234 5,100 -700 Descending Houston Center
Wed 03:42:30 AM 30.0417 -95.6597 145° Southeast 204 235 4,700 -600 Descending Houston Center
Wed 03:42:46 AM 30.0267 -95.6444 139° Southeast 197 227 4,500 -500 Descending Houston Center
Wed 03:43:30 AM 30.0019 -95.6192 138° Southeast 193 222 4,200 -492 Descending Houston Center
Wed 03:43:47 AM 29.9972 -95.5950 103° East 203 234 4,000 -600 Descending Houston Center
Wed 03:44:30 AM 29.9922 -95.5561 98° East 201 231 3,600 -787 Descending Houston Center
Wed 03:44:48 AM 29.9914 -95.5331 92° East 179 206 3,200 -1,333 Descending Houston Center

Login

Don't have an account? Register now (free) for customized features, flight alerts, and more!